This is the latest recevied weather packets stored in our database for station/object AI9F. If no packets are shown the sender has not sent any weather packets the latest 10 day(s).
| Time | Temp. | Humidity | Pressure | Rain* | Wind** | Luminosity | Snow |
|---|---|---|---|---|---|---|---|
| 1778006689 | 12.22° C | 92% | 1008.9 hPa | 0 mm | - | 71 W/m² | - |
| 1778006385 | 12.78° C | 92% | 1009.2 hPa | 0 mm | - | 57 W/m² | - |
| 1778006083 | 12.78° C | 92% | 1009.1 hPa | 0 mm | - | 82 W/m² | - |
| 1778005779 | 12.78° C | 92% | 1009.2 hPa | 0 mm | - | 56 W/m² | - |
| 1778005476 | 12.78° C | 92% | 1009 hPa | 0 mm | - | 80 W/m² | - |
| 1778005172 | 12.78° C | 92% | 1009 hPa | 0 mm | - | 101 W/m² | - |
| 1778004870 | 12.78° C | 91% | 1009 hPa | 0 mm | - | 105 W/m² | - |
| 1778004567 | 12.78° C | 91% | 1009.1 hPa | 0 mm | - | 102 W/m² | - |
| 1778004263 | 12.78° C | 91% | 1009.1 hPa | 0 mm | - | 112 W/m² | - |
| 1778003960 | 12.78° C | 90% | 1009.2 hPa | 0 mm | - | 85 W/m² | - |
| 1778003656 | 12.78° C | 90% | 1009.3 hPa | 0 mm | - | 79 W/m² | - |
| 1778003352 | 12.78° C | 90% | 1009.3 hPa | 0 mm | - | 79 W/m² | - |
| 1778003050 | 12.78° C | 90% | 1009.2 hPa | 0 mm | - | 112 W/m² | - |
| 1778002746 | 12.78° C | 90% | 1009.3 hPa | 0 mm | - | 85 W/m² | - |
| 1778002442 | 12.78° C | 90% | 1009.4 hPa | 0 mm | - | 113 W/m² | - |
| 1778002140 | 12.78° C | 90% | 1009.7 hPa | 0 mm | - | 63 W/m² | - |
| 1778001838 | 12.22° C | 90% | 1009.5 hPa | 0 mm | - | 71 W/m² | - |
| 1778001537 | 12.22° C | 90% | 1009.3 hPa | 0 mm | - | 69 W/m² | - |
| 1778001234 | 12.22° C | 90% | 1009.4 hPa | 0 mm | - | 92 W/m² | - |
| 1778000930 | 12.22° C | 90% | 1009.4 hPa | 0 mm | - | 82 W/m² | - |
| 1778000628 | 12.22° C | 90% | 1009.4 hPa | 0 mm | - | 67 W/m² | - |
| 1778000322 | 12.22° C | 91% | 1009.4 hPa | 0 mm | - | 80 W/m² | - |
| 1778000019 | 12.22° C | 90% | 1009.4 hPa | 0 mm | - | 120 W/m² | - |
| 1777999715 | 12.22° C | 90% | 1009.7 hPa | 0 mm | - | 120 W/m² | - |
| 1777999411 | 12.22° C | 90% | 1009.6 hPa | 0 mm | - | 132 W/m² | - |
* Rain latest hour (hover to see other rain measurements)
** Current wind speed in m/s (hover to see current wind gust speed)